createdAt,value
2024-02-04T00:00:17.569Z,95857.00
2024-02-04T00:01:17.663Z,95866.00
2024-02-04T00:02:17.589Z,95865.00
2024-02-04T00:03:17.601Z,95861.00
2024-02-04T00:04:17.747Z,95855.00
2024-02-04T00:05:17.564Z,95853.00
2024-02-04T00:06:17.623Z,95856.00
2024-02-04T00:07:17.610Z,95858.00
2024-02-04T00:08:17.613Z,95857.00
2024-02-04T00:09:17.597Z,95850.00
2024-02-04T00:10:17.651Z,95848.00
2024-02-04T00:11:17.598Z,95850.00
2024-02-04T00:12:17.606Z,95852.00
2024-02-04T00:13:17.579Z,95854.00
2024-02-04T00:14:17.576Z,95851.00
2024-02-04T00:15:17.611Z,95852.00
2024-02-04T00:16:17.576Z,95855.00
2024-02-04T00:17:17.599Z,95856.00
2024-02-04T00:18:17.736Z,95858.00
2024-02-04T00:19:17.752Z,95861.00
2024-02-04T00:20:17.720Z,95862.00
2024-02-04T00:21:17.715Z,95857.00
2024-02-04T00:22:17.746Z,95848.00
2024-02-04T00:23:17.839Z,95842.00
2024-02-04T00:24:17.813Z,95838.00
2024-02-04T00:25:17.795Z,95839.00
2024-02-04T00:26:17.823Z,95844.00
2024-02-04T00:27:17.853Z,95851.00
2024-02-04T00:28:17.882Z,95853.00
2024-02-04T00:29:17.909Z,95852.00
2024-02-04T00:30:17.911Z,95851.00
2024-02-04T00:31:17.976Z,95853.00
2024-02-04T00:32:18.440Z,95856.00
2024-02-04T00:33:18.060Z,95859.00
2024-02-04T00:34:18.103Z,95856.00
2024-02-04T00:35:18.046Z,95853.00
2024-02-04T00:36:18.076Z,95852.00
2024-02-04T00:37:18.080Z,95855.00
2024-02-04T00:38:18.131Z,95855.00
2024-02-04T00:39:18.139Z,95857.00
2024-02-04T00:40:18.202Z,95863.00
2024-02-04T00:41:18.215Z,95868.00
2024-02-04T00:42:18.209Z,95866.00
2024-02-04T00:43:18.356Z,95865.00
2024-02-04T00:44:18.276Z,95862.00
2024-02-04T00:45:18.312Z,95863.00
2024-02-04T00:46:18.308Z,95868.00
2024-02-04T00:47:18.332Z,95881.00
2024-02-04T00:48:18.440Z,95891.00
2024-02-04T00:49:18.658Z,95895.00
2024-02-04T00:50:18.474Z,95895.00
2024-02-04T00:51:18.539Z,95899.00
2024-02-04T00:52:18.475Z,95904.00
2024-02-04T00:53:18.526Z,95903.00
2024-02-04T00:54:18.521Z,95898.00
2024-02-04T00:55:18.572Z,95899.00
2024-02-04T00:56:18.602Z,95901.00
2024-02-04T00:57:18.614Z,95906.00
2024-02-04T00:58:18.623Z,95906.00
2024-02-04T00:59:18.669Z,95908.00
2024-02-04T01:00:18.707Z,95908.00
2024-02-04T01:01:18.782Z,95912.00
2024-02-04T01:02:18.746Z,95913.00
2024-02-04T01:03:18.874Z,95914.00
2024-02-04T01:04:18.857Z,95911.00
2024-02-04T01:05:18.973Z,95911.00
2024-02-04T01:06:18.900Z,95913.00
2024-02-04T01:07:19.022Z,95915.00
2024-02-04T01:08:18.948Z,95915.00
2024-02-04T01:09:18.950Z,95913.00
2024-02-04T01:10:19.069Z,95912.00
2024-02-04T01:11:19.022Z,95912.00
2024-02-04T01:12:19.082Z,95914.00
2024-02-04T01:13:19.113Z,95909.00
2024-02-04T01:14:19.113Z,95904.00
2024-02-04T01:15:19.162Z,95900.00
2024-02-04T01:16:19.202Z,95901.00
2024-02-04T01:17:19.221Z,95898.00
2024-02-04T01:18:19.298Z,95899.00
2024-02-04T01:19:19.390Z,95900.00
2024-02-04T01:20:19.299Z,95903.00
2024-02-04T01:21:19.336Z,95903.00
2024-02-04T01:22:19.383Z,95898.00
2024-02-04T01:23:19.589Z,95896.00
2024-02-04T01:24:19.447Z,95896.00
2024-02-04T01:25:19.470Z,95896.00
2024-02-04T01:26:19.516Z,95899.00
2024-02-04T01:27:19.525Z,95904.00
2024-02-04T01:28:19.550Z,95903.00
2024-02-04T01:29:19.621Z,95900.00
2024-02-04T01:30:19.641Z,95899.00
2024-02-04T01:31:19.651Z,95903.00
2024-02-04T01:32:19.677Z,95900.00
2024-02-04T01:33:19.806Z,95898.00
2024-02-04T01:34:19.806Z,95896.00
2024-02-04T01:35:19.752Z,95897.00
2024-02-04T01:36:19.819Z,95895.00
2024-02-04T01:37:19.815Z,95892.00
2024-02-04T01:38:19.813Z,95883.00
2024-02-04T01:39:19.904Z,95876.00
2024-02-04T01:40:19.870Z,95874.00
2024-02-04T01:41:19.938Z,95880.00
2024-02-04T01:42:19.969Z,95882.00
2024-02-04T01:43:19.953Z,95880.00
2024-02-04T01:44:20.002Z,95877.00
2024-02-04T01:45:20.033Z,95875.00
2024-02-04T01:46:20.093Z,95873.00
2024-02-04T01:47:20.136Z,95869.00
2024-02-04T01:48:20.202Z,95867.00
2024-02-04T01:49:20.280Z,95862.00
2024-02-04T01:50:20.199Z,95859.00
2024-02-04T01:51:20.309Z,95854.00
2024-02-04T01:52:20.260Z,95850.00
2024-02-04T01:53:20.327Z,95850.00
2024-02-04T01:54:20.492Z,95853.00
2024-02-04T01:55:20.396Z,95853.00
2024-02-04T01:56:20.412Z,95849.00
2024-02-04T01:57:20.652Z,95849.00
2024-02-04T01:58:20.482Z,95850.00
2024-02-04T01:59:20.509Z,95850.00
2024-02-04T02:00:20.587Z,95845.00
2024-02-04T02:01:20.706Z,95843.00
2024-02-04T02:02:20.625Z,95840.00
2024-02-04T02:03:20.695Z,95837.00
2024-02-04T02:04:20.797Z,95834.00
2024-02-04T02:05:20.756Z,95833.00
2024-02-04T02:06:20.835Z,95836.00
2024-02-04T02:07:20.874Z,95834.00
2024-02-04T02:08:20.827Z,95830.00
2024-02-04T02:09:21.001Z,95824.00
2024-02-04T02:10:21.201Z,95829.00
2024-02-04T02:11:20.981Z,95835.00
2024-02-04T02:12:21.064Z,95832.00
2024-02-04T02:13:21.026Z,95824.00
2024-02-04T02:14:21.058Z,95815.00
2024-02-04T02:15:21.258Z,95815.00
2024-02-04T02:16:21.094Z,95821.00
2024-02-04T02:17:21.148Z,95823.00
2024-02-04T02:18:21.311Z,95814.00
2024-02-04T02:19:21.341Z,95805.00
2024-02-04T02:20:21.317Z,95809.00
2024-02-04T02:21:21.327Z,95816.00
2024-02-04T02:22:21.366Z,95822.00
2024-02-04T02:23:21.395Z,95823.00
2024-02-04T02:24:21.453Z,95824.00
2024-02-04T02:25:21.467Z,95821.00
2024-02-04T02:26:21.524Z,95818.00
2024-02-04T02:27:21.584Z,95826.00
2024-02-04T02:28:21.596Z,95832.00
2024-02-04T02:29:21.636Z,95835.00
2024-02-04T02:30:21.782Z,95832.00
2024-02-04T02:31:28.015Z,95830.00
2024-02-04T02:32:22.690Z,95829.00
2024-02-04T02:33:21.864Z,95823.00
2024-02-04T02:34:30.586Z,95818.00
2024-02-04T02:35:22.809Z,95820.00
2024-02-04T02:36:21.763Z,95827.00
2024-02-04T02:37:21.702Z,95836.00
2024-02-04T02:38:21.743Z,95834.00
2024-02-04T02:39:21.767Z,95832.00
2024-02-04T02:40:21.741Z,95829.00
2024-02-04T02:41:21.726Z,95828.00
2024-02-04T02:42:21.713Z,95829.00
2024-02-04T02:43:21.698Z,95834.00
2024-02-04T02:44:21.738Z,95842.00
2024-02-04T02:45:21.746Z,95840.00
2024-02-04T02:46:21.739Z,95831.00
2024-02-04T02:47:21.754Z,95834.00
2024-02-04T02:48:21.853Z,95833.00
2024-02-04T02:49:21.819Z,95832.00
2024-02-04T02:50:21.791Z,95826.00
2024-02-04T02:51:21.866Z,95824.00
2024-02-04T02:52:21.856Z,95830.00
2024-02-04T02:53:21.898Z,95831.00
2024-02-04T02:54:21.931Z,95825.00
2024-02-04T02:55:21.949Z,95823.00
2024-02-04T02:56:21.958Z,95816.00
2024-02-04T02:57:22.114Z,95816.00
2024-02-04T02:58:22.074Z,95823.00
2024-02-04T02:59:22.082Z,95824.00
2024-02-04T03:00:22.138Z,95812.00
2024-02-04T03:01:22.257Z,95811.00
2024-02-04T03:02:22.221Z,95815.00
2024-02-04T03:03:22.457Z,95814.00
2024-02-04T03:04:22.401Z,95810.00
2024-02-04T03:05:22.328Z,95809.00
2024-02-04T03:06:22.388Z,95806.00
2024-02-04T03:07:22.410Z,95806.00
2024-02-04T03:08:22.430Z,95809.00
2024-02-04T03:09:22.530Z,95810.00
2024-02-04T03:10:22.536Z,95805.00
2024-02-04T03:11:22.533Z,95806.00
2024-02-04T03:12:22.635Z,95813.00
2024-02-04T03:13:22.597Z,95817.00
2024-02-04T03:14:22.675Z,95811.00
2024-02-04T03:15:22.740Z,95813.00
2024-02-04T03:16:22.749Z,95819.00
2024-02-04T03:17:22.873Z,95819.00
2024-02-04T03:18:22.836Z,95813.00
2024-02-04T03:19:22.863Z,95817.00
2024-02-04T03:20:22.885Z,95823.00
2024-02-04T03:21:22.948Z,95819.00
2024-02-04T03:22:22.968Z,95810.00
2024-02-04T03:23:23.019Z,95810.00
2024-02-04T03:24:23.095Z,95814.00
2024-02-04T03:25:23.090Z,95815.00
2024-02-04T03:26:23.122Z,95818.00
2024-02-04T03:27:23.239Z,95815.00
2024-02-04T03:28:23.215Z,95815.00
2024-02-04T03:29:23.231Z,95822.00
2024-02-04T03:30:23.306Z,95825.00
2024-02-04T03:31:23.342Z,95826.00
2024-02-04T03:32:23.388Z,95825.00
2024-02-04T03:33:23.546Z,95822.00
2024-02-04T03:34:23.628Z,95821.00
2024-02-04T03:35:23.503Z,95830.00
2024-02-04T03:36:23.608Z,95836.00
2024-02-04T03:37:23.593Z,95841.00
2024-02-04T03:38:23.646Z,95840.00
2024-02-04T03:39:23.688Z,95840.00
2024-02-04T03:40:23.765Z,95840.00
2024-02-04T03:41:23.767Z,95837.00
2024-02-04T03:42:23.857Z,95837.00
2024-02-04T03:43:23.852Z,95837.00
2024-02-04T03:44:23.904Z,95837.00
2024-02-04T03:45:23.968Z,95834.00
2024-02-04T03:46:23.980Z,95838.00
2024-02-04T03:47:24.046Z,95846.00
2024-02-04T03:48:24.183Z,95852.00
2024-02-04T03:49:24.277Z,95848.00
2024-02-04T03:50:24.160Z,95843.00
2024-02-04T03:51:24.228Z,95847.00
2024-02-04T03:52:24.232Z,95844.00
2024-02-04T03:53:24.303Z,95838.00
2024-02-04T03:54:24.351Z,95838.00
2024-02-04T03:55:24.377Z,95837.00
2024-02-04T03:56:24.434Z,95833.00
2024-02-04T03:57:24.528Z,95832.00
2024-02-04T03:58:24.492Z,95830.00
2024-02-04T03:59:24.552Z,95834.00
2024-02-04T04:00:24.620Z,95845.00
2024-02-04T04:01:24.661Z,95845.00
2024-02-04T04:02:24.667Z,95841.00
2024-02-04T04:03:24.877Z,95842.00
2024-02-04T04:04:24.893Z,95848.00
2024-02-04T04:05:24.861Z,95848.00
2024-02-04T04:06:24.880Z,95840.00
2024-02-04T04:07:25.061Z,95842.00
2024-02-04T04:08:24.921Z,95850.00
2024-02-04T04:09:24.993Z,95847.00
2024-02-04T04:10:24.979Z,95840.00
2024-02-04T04:11:25.037Z,95846.00
2024-02-04T04:12:25.089Z,95850.00
2024-02-04T04:13:25.124Z,95844.00
2024-02-04T04:14:25.153Z,95840.00
2024-02-04T04:15:25.219Z,95845.00
2024-02-04T04:16:25.277Z,95849.00
2024-02-04T04:17:25.284Z,95847.00
2024-02-04T04:18:25.393Z,95838.00
2024-02-04T04:19:25.469Z,95840.00
2024-02-04T04:20:25.407Z,95843.00
2024-02-04T04:21:32.630Z,95847.00
2024-02-04T04:22:32.637Z,95843.00
2024-02-04T04:23:32.608Z,95846.00
2024-02-04T04:24:32.608Z,95847.00
2024-02-04T04:25:32.582Z,95845.00
2024-02-04T04:26:32.619Z,95849.00
2024-02-04T04:27:32.648Z,95852.00
2024-02-04T04:28:32.584Z,95852.00
2024-02-04T04:29:32.611Z,95853.00
2024-02-04T04:30:32.640Z,95854.00
2024-02-04T04:31:39.847Z,95849.00
2024-02-04T04:32:39.928Z,95850.00
2024-02-04T04:33:39.978Z,95851.00
2024-02-04T04:34:39.845Z,95853.00
2024-02-04T04:35:39.832Z,95857.00
2024-02-04T04:36:39.901Z,95855.00
2024-02-04T04:37:39.816Z,95853.00
2024-02-04T04:38:39.844Z,95847.00
2024-02-04T04:39:39.919Z,95850.00
2024-02-04T04:40:39.833Z,95851.00
2024-02-04T04:41:39.855Z,95851.00
2024-02-04T04:42:39.917Z,95853.00
2024-02-04T04:43:39.830Z,95858.00
2024-02-04T04:44:39.864Z,95856.00
2024-02-04T04:45:39.937Z,95849.00
2024-02-04T04:46:39.838Z,95849.00
2024-02-04T04:47:39.920Z,95852.00
2024-02-04T04:48:39.989Z,95852.00
2024-02-04T04:49:39.909Z,95851.00
2024-02-04T04:50:39.833Z,95846.00
2024-02-04T04:51:39.884Z,95844.00
2024-02-04T04:52:39.865Z,95844.00
2024-02-04T04:53:39.869Z,95846.00
2024-02-04T04:54:39.881Z,95851.00
2024-02-04T04:55:39.890Z,95849.00
2024-02-04T04:56:42.746Z,95842.00
2024-02-04T04:57:39.920Z,95838.00
2024-02-04T04:58:39.879Z,95840.00
2024-02-04T04:59:39.893Z,95844.00
2024-02-04T05:00:39.981Z,95842.00
2024-02-04T05:01:39.980Z,95831.00
2024-02-04T05:02:39.871Z,95834.00
2024-02-04T05:03:39.949Z,95844.00
2024-02-04T05:04:40.045Z,95844.00
2024-02-04T05:05:39.849Z,95833.00
2024-02-04T05:06:39.892Z,95837.00
2024-02-04T05:07:40.051Z,95853.00
2024-02-04T05:08:39.862Z,95861.00
2024-02-04T05:09:39.902Z,95854.00
2024-02-04T05:10:39.910Z,95853.00
2024-02-04T05:11:39.902Z,95854.00
2024-02-04T05:12:39.885Z,95847.00
2024-02-04T05:13:39.885Z,95846.00
2024-02-04T05:14:39.866Z,95853.00
2024-02-04T05:15:39.925Z,95867.00
2024-02-04T05:16:39.881Z,95861.00
2024-02-04T05:17:39.943Z,95850.00
2024-02-04T05:18:40.056Z,95854.00
2024-02-04T05:19:39.994Z,95862.00
2024-02-04T05:20:39.882Z,95853.00
2024-02-04T05:21:39.897Z,95848.00
2024-02-04T05:22:39.904Z,95860.00
2024-02-04T05:23:39.875Z,95863.00
2024-02-04T05:24:40.023Z,95860.00
2024-02-04T05:25:39.881Z,95863.00
2024-02-04T05:26:39.924Z,95866.00
2024-02-04T05:27:42.692Z,95858.00
2024-02-04T05:28:39.933Z,95858.00
2024-02-04T05:29:39.964Z,95865.00
2024-02-04T05:30:39.932Z,95866.00
2024-02-04T05:31:39.879Z,95860.00
2024-02-04T05:32:39.909Z,95857.00
2024-02-04T05:33:39.930Z,95864.00
2024-02-04T05:34:40.045Z,95865.00
2024-02-04T05:35:39.889Z,95858.00
2024-02-04T05:36:39.981Z,95853.00
2024-02-04T05:37:39.933Z,95854.00
2024-02-04T05:38:39.874Z,95856.00
2024-02-04T05:39:39.910Z,95858.00
2024-02-04T05:40:39.867Z,95859.00
2024-02-04T05:41:39.881Z,95860.00
2024-02-04T05:42:39.959Z,95858.00
2024-02-04T05:43:39.883Z,95856.00
2024-02-04T05:44:39.921Z,95852.00
2024-02-04T05:45:39.979Z,95850.00
2024-02-04T05:46:40.046Z,95851.00
2024-02-04T05:47:39.987Z,95854.00
2024-02-04T05:48:40.060Z,95859.00
2024-02-04T05:49:40.148Z,95864.00
2024-02-04T05:50:40.147Z,95866.00
2024-02-04T05:51:39.947Z,95863.00
2024-02-04T05:52:39.980Z,95860.00
2024-02-04T05:53:39.895Z,95864.00
2024-02-04T05:54:39.961Z,95870.00
2024-02-04T05:55:39.928Z,95877.00
2024-02-04T05:56:39.910Z,95876.00
2024-02-04T05:57:39.985Z,95879.00
2024-02-04T05:58:39.946Z,95883.00
2024-02-04T05:59:39.943Z,95882.00
2024-02-04T06:00:39.958Z,95872.00
2024-02-04T06:01:39.941Z,95871.00
2024-02-04T06:02:39.957Z,95880.00
2024-02-04T06:03:40.015Z,95879.00
2024-02-04T06:04:40.051Z,95883.00
2024-02-04T06:05:39.945Z,95880.00
2024-02-04T06:06:40.044Z,95883.00
2024-02-04T06:07:39.948Z,95887.00
2024-02-04T06:08:39.934Z,95887.00
2024-02-04T06:09:39.948Z,95886.00
2024-02-04T06:10:39.973Z,95884.00
2024-02-04T06:11:39.964Z,95880.00
2024-02-04T06:12:40.021Z,95884.00
2024-02-04T06:13:39.935Z,95885.00
2024-02-04T06:14:39.951Z,95887.00
2024-02-04T06:15:39.972Z,95890.00
2024-02-04T06:16:39.938Z,95890.00
2024-02-04T06:17:40.002Z,95879.00
2024-02-04T06:18:39.994Z,95871.00
2024-02-04T06:19:40.099Z,95875.00
2024-02-04T06:20:39.954Z,95885.00
2024-02-04T06:21:39.977Z,95890.00
2024-02-04T06:22:39.953Z,95883.00
2024-02-04T06:23:39.942Z,95876.00
2024-02-04T06:24:40.082Z,95879.00
2024-02-04T06:25:40.077Z,95876.00
2024-02-04T06:26:39.964Z,95872.00
2024-02-04T06:27:40.069Z,95880.00
2024-02-04T06:28:40.254Z,95884.00
2024-02-04T06:29:40.114Z,95886.00
2024-02-04T06:30:40.147Z,95880.00
2024-02-04T06:31:40.170Z,95873.00
2024-02-04T06:32:40.290Z,95873.00
2024-02-04T06:33:40.298Z,95873.00
2024-02-04T06:34:40.434Z,95867.00
2024-02-04T06:35:40.340Z,95866.00
2024-02-04T06:36:40.479Z,95875.00
2024-02-04T06:37:40.464Z,95884.00
2024-02-04T06:38:40.439Z,95880.00
2024-02-04T06:39:40.506Z,95869.00
2024-02-04T06:40:40.507Z,95865.00
2024-02-04T06:41:40.535Z,95869.00
2024-02-04T06:42:40.638Z,95873.00
2024-02-04T06:43:40.670Z,95873.00
2024-02-04T06:44:40.680Z,95867.00
2024-02-04T06:45:40.789Z,95864.00
2024-02-04T06:46:40.728Z,95864.00
2024-02-04T06:47:40.832Z,95870.00
2024-02-04T06:48:40.918Z,95877.00
2024-02-04T06:49:41.033Z,95879.00
2024-02-04T06:50:41.002Z,95875.00
2024-02-04T06:51:40.986Z,95874.00
2024-02-04T06:52:40.986Z,95880.00
2024-02-04T06:53:41.019Z,95880.00
2024-02-04T06:54:41.094Z,95879.00
2024-02-04T06:55:41.093Z,95877.00
2024-02-04T06:56:41.146Z,95881.00
2024-02-04T06:57:41.378Z,95876.00
2024-02-04T06:58:41.219Z,95872.00
2024-02-04T06:59:41.264Z,95875.00
2024-02-04T07:00:41.410Z,95882.00
2024-02-04T07:01:41.524Z,95887.00
2024-02-04T07:02:41.421Z,95882.00
2024-02-04T07:03:41.561Z,95875.00
2024-02-04T07:04:41.589Z,95877.00
2024-02-04T07:05:41.560Z,95890.00
2024-02-04T07:06:41.597Z,95894.00
2024-02-04T07:07:41.636Z,95889.00
2024-02-04T07:08:41.668Z,95888.00
2024-02-04T07:09:41.721Z,95894.00
2024-02-04T07:10:41.720Z,95897.00
2024-02-04T07:11:41.750Z,95897.00
2024-02-04T07:12:41.848Z,95899.00
2024-02-04T07:13:41.831Z,95903.00
2024-02-04T07:14:41.894Z,95899.00
2024-02-04T07:15:41.948Z,95885.00
2024-02-04T07:16:41.946Z,95885.00
2024-02-04T07:17:42.055Z,95891.00
2024-02-04T07:18:42.131Z,95901.00
2024-02-04T07:19:42.240Z,95907.00
2024-02-04T07:20:42.098Z,95908.00
2024-02-04T07:21:42.193Z,95911.00
2024-02-04T07:22:42.189Z,95906.00
2024-02-04T07:23:42.277Z,95897.00
2024-02-04T07:24:42.262Z,95893.00
2024-02-04T07:25:42.290Z,95900.00
2024-02-04T07:26:42.328Z,95909.00
2024-02-04T07:27:42.411Z,95910.00
2024-02-04T07:28:42.408Z,95906.00
2024-02-04T07:29:42.447Z,95904.00
2024-02-04T07:30:42.558Z,95904.00
2024-02-04T07:31:42.516Z,95906.00
2024-02-04T07:32:42.609Z,95906.00
2024-02-04T07:33:42.689Z,95912.00
2024-02-04T07:34:42.865Z,95912.00
2024-02-04T07:35:42.670Z,95904.00
2024-02-04T07:36:42.756Z,95903.00
2024-02-04T07:37:42.771Z,95901.00
2024-02-04T07:38:42.868Z,95902.00
2024-02-04T07:39:42.826Z,95911.00
2024-02-04T07:40:42.865Z,95915.00
2024-02-04T07:41:42.922Z,95905.00
2024-02-04T07:42:42.988Z,95908.00
2024-02-04T07:43:42.975Z,95918.00
2024-02-04T07:44:43.019Z,95917.00
2024-02-04T07:45:43.062Z,95905.00
2024-02-04T07:46:43.105Z,95902.00
2024-02-04T07:47:43.205Z,95912.00
2024-02-04T07:48:43.416Z,95915.00
2024-02-04T07:49:43.336Z,95904.00
2024-02-04T07:50:43.224Z,95902.00
2024-02-04T07:51:43.296Z,95910.00
2024-02-04T07:52:45.107Z,95918.00
2024-02-04T07:53:43.348Z,95907.00
2024-02-04T07:54:43.412Z,95895.00
2024-02-04T07:55:43.443Z,95890.00
2024-02-04T07:56:43.476Z,95901.00
2024-02-04T07:57:43.601Z,95915.00
2024-02-04T07:58:43.537Z,95910.00
2024-02-04T07:59:43.567Z,95902.00
2024-02-04T08:00:43.777Z,95900.00
2024-02-04T08:01:43.829Z,95906.00
2024-02-04T08:02:43.694Z,95909.00
2024-02-04T08:03:43.800Z,95902.00
2024-02-04T08:04:44.049Z,95894.00
2024-02-04T08:05:43.838Z,95890.00
2024-02-04T08:06:43.933Z,95895.00
2024-02-04T08:07:44.027Z,95905.00
2024-02-04T08:08:43.957Z,95910.00
2024-02-04T08:09:43.979Z,95910.00
2024-02-04T08:10:44.037Z,95908.00
2024-02-04T08:11:44.080Z,95908.00
2024-02-04T08:12:44.119Z,95910.00
2024-02-04T08:13:44.118Z,95904.00
2024-02-04T08:14:44.160Z,95891.00
2024-02-04T08:15:44.207Z,95895.00
2024-02-04T08:16:44.289Z,95908.00
2024-02-04T08:17:44.548Z,95912.00
2024-02-04T08:18:44.393Z,95911.00
2024-02-04T08:19:44.540Z,95906.00
2024-02-04T08:20:44.398Z,95904.00
2024-02-04T08:21:44.505Z,95911.00
2024-02-04T08:22:44.497Z,95915.00
2024-02-04T08:23:44.512Z,95905.00
2024-02-04T08:24:44.570Z,95899.00
2024-02-04T08:25:44.583Z,95898.00
2024-02-04T08:26:44.631Z,95903.00
2024-02-04T08:27:44.691Z,95909.00
2024-02-04T08:28:44.673Z,95904.00
2024-02-04T08:29:44.713Z,95892.00
2024-02-04T08:30:44.784Z,95892.00
2024-02-04T08:31:44.811Z,95903.00
2024-02-04T08:32:44.817Z,95909.00
2024-02-04T08:33:44.942Z,95906.00
2024-02-04T08:34:45.064Z,95903.00
2024-02-04T08:35:44.924Z,95900.00
2024-02-04T08:36:44.987Z,95906.00
2024-02-04T08:37:45.006Z,95906.00
2024-02-04T08:38:45.024Z,95902.00
2024-02-04T08:39:45.086Z,95902.00
2024-02-04T08:40:45.102Z,95903.00
2024-02-04T08:41:45.116Z,95898.00
2024-02-04T08:42:45.255Z,95897.00
2024-02-04T08:43:45.183Z,95905.00
2024-02-04T08:44:45.221Z,95910.00
2024-02-04T08:45:45.241Z,95907.00
2024-02-04T08:46:45.269Z,95905.00
2024-02-04T08:47:45.341Z,95907.00
2024-02-04T08:48:45.446Z,95913.00
2024-02-04T08:49:45.511Z,95906.00
2024-02-04T08:50:45.442Z,95898.00
2024-02-04T08:51:45.562Z,95894.00
2024-02-04T08:52:45.623Z,95896.00
2024-02-04T08:53:45.533Z,95898.00
2024-02-04T08:54:45.578Z,95897.00
2024-02-04T08:55:45.646Z,95900.00
2024-02-04T08:56:45.634Z,95910.00
2024-02-04T08:57:45.716Z,95914.00
2024-02-04T08:58:45.700Z,95908.00
2024-02-04T08:59:45.761Z,95896.00
2024-02-04T09:00:45.831Z,95888.00
2024-02-04T09:01:45.854Z,95890.00
2024-02-04T09:02:45.882Z,95892.00
2024-02-04T09:03:45.932Z,95890.00
2024-02-04T09:04:46.088Z,95887.00
2024-02-04T09:05:45.921Z,95884.00
2024-02-04T09:06:46.025Z,95883.00
2024-02-04T09:07:46.111Z,95895.00
2024-02-04T09:08:46.016Z,95899.00
2024-02-04T09:09:46.066Z,95887.00
2024-02-04T09:10:46.084Z,95864.00
2024-02-04T09:11:46.121Z,95862.00
2024-02-04T09:12:46.234Z,95876.00
2024-02-04T09:13:46.242Z,95888.00
2024-02-04T09:14:46.211Z,95879.00
2024-02-04T09:15:46.275Z,95861.00
2024-02-04T09:16:46.447Z,95867.00
2024-02-04T09:17:46.327Z,95882.00
2024-02-04T09:18:46.476Z,95889.00
2024-02-04T09:19:46.523Z,95880.00
2024-02-04T09:20:46.534Z,95863.00
2024-02-04T09:21:46.505Z,95860.00
2024-02-04T09:22:46.490Z,95865.00
2024-02-04T09:23:46.520Z,95869.00
2024-02-04T09:24:46.591Z,95869.00
2024-02-04T09:25:46.805Z,95869.00
2024-02-04T09:26:46.545Z,95863.00
2024-02-04T09:27:46.770Z,95862.00
2024-02-04T09:28:46.784Z,95865.00
2024-02-04T09:29:46.627Z,95866.00
2024-02-04T09:30:46.780Z,95868.00
2024-02-04T09:31:46.858Z,95863.00
2024-02-04T09:32:46.942Z,95851.00
2024-02-04T09:33:46.954Z,95840.00
2024-02-04T09:34:47.132Z,95838.00
2024-02-04T09:35:46.859Z,95847.00
2024-02-04T09:36:47.040Z,95855.00
2024-02-04T09:37:46.961Z,95864.00
2024-02-04T09:38:46.926Z,95860.00
2024-02-04T09:39:47.016Z,95846.00
2024-02-04T09:40:47.006Z,95844.00
2024-02-04T09:41:47.008Z,95843.00
2024-02-04T09:42:47.146Z,95844.00
2024-02-04T09:43:47.200Z,95844.00
2024-02-04T09:44:47.036Z,95840.00
2024-02-04T09:45:47.202Z,95833.00
2024-02-04T09:46:47.291Z,95830.00
2024-02-04T09:47:47.309Z,95831.00
2024-02-04T09:48:47.372Z,95832.00
2024-02-04T09:49:47.323Z,95839.00
2024-02-04T09:50:47.308Z,95842.00
2024-02-04T09:51:47.286Z,95834.00
2024-02-04T09:52:47.345Z,95827.00
2024-02-04T09:53:47.316Z,95824.00
2024-02-04T09:54:47.405Z,95829.00
2024-02-04T09:55:47.485Z,95831.00
2024-02-04T09:56:47.418Z,95829.00
2024-02-04T09:57:47.430Z,95818.00
2024-02-04T09:58:47.432Z,95808.00
2024-02-04T09:59:47.422Z,95811.00
2024-02-04T10:00:47.577Z,95820.00
2024-02-04T10:01:47.655Z,95825.00
2024-02-04T10:02:47.620Z,95831.00
2024-02-04T10:03:47.516Z,95831.00
2024-02-04T10:04:47.651Z,95827.00
2024-02-04T10:05:47.553Z,95817.00
2024-02-04T10:06:47.695Z,95816.00
2024-02-04T10:07:47.634Z,95828.00
2024-02-04T10:08:47.754Z,95838.00
2024-02-04T10:09:47.676Z,95828.00
2024-02-04T10:10:47.634Z,95817.00
2024-02-04T10:11:47.603Z,95816.00
2024-02-04T10:12:47.622Z,95818.00
2024-02-04T10:13:47.642Z,95822.00
2024-02-04T10:14:47.645Z,95823.00
2024-02-04T10:15:47.659Z,95823.00
2024-02-04T10:16:47.644Z,95817.00
2024-02-04T10:17:47.721Z,95812.00
2024-02-04T10:18:47.771Z,95805.00
2024-02-04T10:19:47.829Z,95805.00
2024-02-04T10:20:47.702Z,95814.00
2024-02-04T10:21:47.754Z,95820.00
2024-02-04T10:22:47.785Z,95812.00
2024-02-04T10:23:47.759Z,95796.00
2024-02-04T10:24:47.787Z,95789.00
2024-02-04T10:25:47.775Z,95795.00
2024-02-04T10:26:47.813Z,95802.00
2024-02-04T10:27:47.834Z,95801.00
2024-02-04T10:28:47.801Z,95790.00
2024-02-04T10:29:47.826Z,95787.00
2024-02-04T10:30:47.876Z,95786.00
2024-02-04T10:31:47.846Z,95785.00
2024-02-04T10:32:47.880Z,95782.00
2024-02-04T10:33:47.996Z,95783.00
2024-02-04T10:34:47.908Z,95779.00
2024-02-04T10:35:47.850Z,95781.00
2024-02-04T10:36:47.940Z,95787.00
2024-02-04T10:37:47.909Z,95793.00
2024-02-04T10:38:47.910Z,95790.00
2024-02-04T10:39:47.910Z,95787.00
2024-02-04T10:40:47.915Z,95781.00
2024-02-04T10:41:47.897Z,95778.00
2024-02-04T10:42:47.986Z,95776.00
2024-02-04T10:43:47.971Z,95775.00
2024-02-04T10:44:47.967Z,95771.00
2024-02-04T10:45:47.997Z,95769.00
2024-02-04T10:46:48.024Z,95771.00
2024-02-04T10:47:48.024Z,95778.00
2024-02-04T10:48:48.055Z,95779.00
2024-02-04T10:49:48.129Z,95773.00
2024-02-04T10:50:47.975Z,95765.00
2024-02-04T10:51:48.019Z,95762.00
2024-02-04T10:52:48.024Z,95763.00
2024-02-04T10:53:48.090Z,95764.00
2024-02-04T10:54:48.047Z,95767.00
2024-02-04T10:55:48.106Z,95763.00
2024-02-04T10:56:48.025Z,95754.00
2024-02-04T10:57:48.088Z,95745.00
2024-02-04T10:58:48.102Z,95739.00
2024-02-04T10:59:48.085Z,95747.00
2024-02-04T11:00:48.174Z,95759.00
2024-02-04T11:01:48.195Z,95765.00
2024-02-04T11:02:48.156Z,95763.00
2024-02-04T11:03:48.170Z,95751.00
2024-02-04T11:04:48.169Z,95737.00
2024-02-04T11:05:48.184Z,95737.00
2024-02-04T11:06:48.146Z,95744.00
2024-02-04T11:07:48.190Z,95747.00
2024-02-04T11:08:48.134Z,95743.00
2024-02-04T11:09:48.186Z,95739.00
2024-02-04T11:10:48.147Z,95730.00
2024-02-04T11:11:48.160Z,95722.00
2024-02-04T11:12:48.203Z,95723.00
2024-02-04T11:13:48.183Z,95734.00
2024-02-04T11:14:48.195Z,95737.00
2024-02-04T11:15:48.194Z,95733.00
2024-02-04T11:16:48.154Z,95732.00
2024-02-04T11:17:48.265Z,95730.00
2024-02-04T11:18:48.266Z,95726.00
2024-02-04T11:19:48.313Z,95722.00
2024-02-04T11:20:48.221Z,95719.00
2024-02-04T11:21:48.232Z,95714.00
2024-02-04T11:22:48.241Z,95708.00
2024-02-04T11:23:48.216Z,95700.00
2024-02-04T11:24:48.254Z,95698.00
2024-02-04T11:25:48.257Z,95702.00
2024-02-04T11:26:48.229Z,95708.00
2024-02-04T11:27:48.293Z,95710.00
2024-02-04T11:28:48.333Z,95704.00
2024-02-04T11:29:48.316Z,95700.00
2024-02-04T11:30:48.289Z,95704.00
2024-02-04T11:31:48.456Z,95709.00
2024-02-04T11:32:48.569Z,95703.00
2024-02-04T11:33:48.412Z,95691.00
2024-02-04T11:34:48.505Z,95677.00
2024-02-04T11:35:48.465Z,95680.00
2024-02-04T11:36:48.443Z,95686.00
2024-02-04T11:37:48.394Z,95694.00
2024-02-04T11:38:48.316Z,95688.00
2024-02-04T11:39:48.388Z,95685.00
2024-02-04T11:40:48.513Z,95688.00
2024-02-04T11:41:48.404Z,95687.00
2024-02-04T11:42:48.449Z,95681.00
2024-02-04T11:43:48.381Z,95681.00
2024-02-04T11:44:48.467Z,95683.00